sensor_id;sensor_type;location;lat;lon;timestamp;pressure;altitude;pressure_sealevel;temperature;humidity
14882;BME280;7533;51.278;12.588;2023-05-20T00:03:11;100866.84;;;27.53;50.52
14882;BME280;7533;51.278;12.588;2023-05-20T00:08:14;100850.69;;;27.52;50.55
14882;BME280;7533;51.278;12.588;2023-05-20T00:13:18;100847.50;;;27.47;50.71
14882;BME280;7533;51.278;12.588;2023-05-20T00:18:21;100843.78;;;27.48;50.50
14882;BME280;7533;51.278;12.588;2023-05-20T00:23:24;100846.41;;;27.38;50.58
14882;BME280;7533;51.278;12.588;2023-05-20T00:28:28;100835.34;;;27.30;50.90
14882;BME280;7533;51.278;12.588;2023-05-20T00:33:31;100817.44;;;27.27;51.03
14882;BME280;7533;51.278;12.588;2023-05-20T00:38:35;100843.03;;;27.25;51.07
14882;BME280;7533;51.278;12.588;2023-05-20T00:43:39;100840.13;;;27.17;51.25
14882;BME280;7533;51.278;12.588;2023-05-20T00:48:43;100849.38;;;27.14;51.24
14882;BME280;7533;51.278;12.588;2023-05-20T00:53:46;100844.31;;;27.09;51.35
14882;BME280;7533;51.278;12.588;2023-05-20T00:58:51;100843.84;;;26.93;51.79
14882;BME280;7533;51.278;12.588;2023-05-20T01:03:53;100833.25;;;26.90;51.58
14882;BME280;7533;51.278;12.588;2023-05-20T01:08:56;100851.66;;;26.86;52.02
14882;BME280;7533;51.278;12.588;2023-05-20T01:14:06;100847.59;;;26.81;52.09
14882;BME280;7533;51.278;12.588;2023-05-20T01:19:21;100840.81;;;26.75;51.90
14882;BME280;7533;51.278;12.588;2023-05-20T01:24:31;100836.53;;;26.73;52.17
14882;BME280;7533;51.278;12.588;2023-05-20T01:29:34;100825.19;;;26.56;52.55
14882;BME280;7533;51.278;12.588;2023-05-20T01:34:37;100821.28;;;26.49;52.62
14882;BME280;7533;51.278;12.588;2023-05-20T01:39:44;100816.78;;;26.37;52.68
14882;BME280;7533;51.278;12.588;2023-05-20T01:44:47;100819.91;;;26.32;52.99
14882;BME280;7533;51.278;12.588;2023-05-20T01:49:50;100823.09;;;26.26;52.88
14882;BME280;7533;51.278;12.588;2023-05-20T01:54:55;100835.94;;;26.24;53.16
14882;BME280;7533;51.278;12.588;2023-05-20T01:59:58;100834.59;;;26.19;53.38
14882;BME280;7533;51.278;12.588;2023-05-20T02:05:01;100824.09;;;26.14;53.26
14882;BME280;7533;51.278;12.588;2023-05-20T02:10:07;100831.50;;;26.12;53.63
14882;BME280;7533;51.278;12.588;2023-05-20T02:15:10;100829.91;;;26.09;53.51
14882;BME280;7533;51.278;12.588;2023-05-20T02:20:14;100828.66;;;26.02;53.80
14882;BME280;7533;51.278;12.588;2023-05-20T02:25:19;100820.78;;;25.99;53.79
14882;BME280;7533;51.278;12.588;2023-05-20T02:30:21;100828.91;;;25.88;53.96
14882;BME280;7533;51.278;12.588;2023-05-20T02:35:24;100822.22;;;25.81;54.33
14882;BME280;7533;51.278;12.588;2023-05-20T02:40:29;100822.72;;;25.75;54.56
14882;BME280;7533;51.278;12.588;2023-05-20T02:45:32;100819.59;;;25.68;54.77
14882;BME280;7533;51.278;12.588;2023-05-20T02:50:37;100804.06;;;25.59;54.63
14882;BME280;7533;51.278;12.588;2023-05-20T02:55:42;100813.06;;;25.59;55.04
14882;BME280;7533;51.278;12.588;2023-05-20T03:00:47;100812.31;;;25.57;55.13
14882;BME280;7533;51.278;12.588;2023-05-20T03:05:50;100823.50;;;25.53;54.90
14882;BME280;7533;51.278;12.588;2023-05-20T03:10:54;100820.06;;;25.51;54.92
14882;BME280;7533;51.278;12.588;2023-05-20T03:15:57;100815.13;;;25.45;55.51
14882;BME280;7533;51.278;12.588;2023-05-20T03:21:02;100826.19;;;25.42;55.39
14882;BME280;7533;51.278;12.588;2023-05-20T03:26:06;100825.81;;;25.35;55.55
14882;BME280;7533;51.278;12.588;2023-05-20T03:31:09;100834.94;;;25.34;55.72
14882;BME280;7533;51.278;12.588;2023-05-20T03:36:12;100828.13;;;25.28;55.85
14882;BME280;7533;51.278;12.588;2023-05-20T03:41:16;100825.03;;;25.22;56.13
14882;BME280;7533;51.278;12.588;2023-05-20T03:46:19;100826.25;;;25.18;56.09
14882;BME280;7533;51.278;12.588;2023-05-20T03:51:22;100829.06;;;25.16;56.29
14882;BME280;7533;51.278;12.588;2023-05-20T03:56:27;100830.28;;;25.12;56.45
14882;BME280;7533;51.278;12.588;2023-05-20T04:01:31;100827.06;;;25.07;56.56
14882;BME280;7533;51.278;12.588;2023-05-20T04:06:34;100827.91;;;25.08;56.59
14882;BME280;7533;51.278;12.588;2023-05-20T04:11:39;100828.03;;;25.06;56.62
14882;BME280;7533;51.278;12.588;2023-05-20T04:16:41;100814.19;;;24.98;56.58
14882;BME280;7533;51.278;12.588;2023-05-20T04:21:45;100817.59;;;24.89;56.91
14882;BME280;7533;51.278;12.588;2023-05-20T04:26:50;100824.22;;;24.85;57.28
14882;BME280;7533;51.278;12.588;2023-05-20T04:31:53;100817.38;;;24.92;56.79
14882;BME280;7533;51.278;12.588;2023-05-20T04:36:59;100818.34;;;24.91;57.14
14882;BME280;7533;51.278;12.588;2023-05-20T04:42:04;100827.56;;;24.88;57.08
14882;BME280;7533;51.278;12.588;2023-05-20T04:47:07;100837.66;;;24.86;57.26
14882;BME280;7533;51.278;12.588;2023-05-20T04:52:11;100843.06;;;24.86;57.11
14882;BME280;7533;51.278;12.588;2023-05-20T04:57:16;100841.22;;;24.87;57.11
14882;BME280;7533;51.278;12.588;2023-05-20T05:02:21;100831.13;;;24.89;57.09
14882;BME280;7533;51.278;12.588;2023-05-20T05:07:24;100839.47;;;24.86;57.40
14882;BME280;7533;51.278;12.588;2023-05-20T05:12:28;100838.28;;;24.90;57.58
14882;BME280;7533;51.278;12.588;2023-05-20T05:17:32;100843.47;;;24.93;57.19
14882;BME280;7533;51.278;12.588;2023-05-20T05:22:35;100835.09;;;24.96;57.06
14882;BME280;7533;51.278;12.588;2023-05-20T05:27:42;100829.81;;;24.94;57.07
14882;BME280;7533;51.278;12.588;2023-05-20T05:32:46;100812.56;;;24.95;57.29
14882;BME280;7533;51.278;12.588;2023-05-20T05:37:49;100798.03;;;24.96;57.05
14882;BME280;7533;51.278;12.588;2023-05-20T05:42:54;100798.91;;;24.97;57.23
14882;BME280;7533;51.278;12.588;2023-05-20T05:47:57;100803.59;;;24.95;56.84
14882;BME280;7533;51.278;12.588;2023-05-20T05:53:00;100801.75;;;24.95;56.88
14882;BME280;7533;51.278;12.588;2023-05-20T05:58:06;100804.69;;;24.92;57.26
14882;BME280;7533;51.278;12.588;2023-05-20T06:03:08;100812.91;;;24.91;57.36
14882;BME280;7533;51.278;12.588;2023-05-20T06:08:12;100809.34;;;24.90;57.42
14882;BME280;7533;51.278;12.588;2023-05-20T06:13:16;100801.22;;;24.90;57.16
14882;BME280;7533;51.278;12.588;2023-05-20T06:18:20;100802.34;;;24.88;57.48
14882;BME280;7533;51.278;12.588;2023-05-20T06:23:26;100804.06;;;24.89;57.47
14882;BME280;7533;51.278;12.588;2023-05-20T06:28:33;100806.41;;;24.93;57.61
14882;BME280;7533;51.278;12.588;2023-05-20T06:33:36;100802.25;;;25.00;57.31
14882;BME280;7533;51.278;12.588;2023-05-20T06:38:43;100807.03;;;25.10;56.89
14882;BME280;7533;51.278;12.588;2023-05-20T06:43:50;100810.84;;;25.18;56.89
14882;BME280;7533;51.278;12.588;2023-05-20T06:49:12;100815.69;;;25.26;56.29
14882;BME280;7533;51.278;12.588;2023-05-20T06:54:15;100814.09;;;25.35;56.31
14882;BME280;7533;51.278;12.588;2023-05-20T06:59:20;100800.34;;;25.38;56.05
14882;BME280;7533;51.278;12.588;2023-05-20T07:04:23;100807.00;;;25.45;55.34
14882;BME280;7533;51.278;12.588;2023-05-20T07:09:26;100797.38;;;25.41;54.24
14882;BME280;7533;51.278;12.588;2023-05-20T07:14:31;100782.09;;;25.40;53.41
14882;BME280;7533;51.278;12.588;2023-05-20T07:19:35;100788.41;;;25.51;53.36
14882;BME280;7533;51.278;12.588;2023-05-20T07:24:38;100774.84;;;25.51;52.95
14882;BME280;7533;51.278;12.588;2023-05-20T07:29:42;100778.44;;;25.63;52.75
14882;BME280;7533;51.278;12.588;2023-05-20T07:34:45;100771.41;;;25.61;51.97
14882;BME280;7533;51.278;12.588;2023-05-20T07:39:48;100771.78;;;25.67;52.07
14882;BME280;7533;51.278;12.588;2023-05-20T07:44:52;100777.34;;;25.66;51.92
14882;BME280;7533;51.278;12.588;2023-05-20T07:49:56;100779.69;;;25.70;51.76
14882;BME280;7533;51.278;12.588;2023-05-20T07:54:59;100759.53;;;24.45;53.22
14882;BME280;7533;51.278;12.588;2023-05-20T08:00:04;100759.34;;;24.22;53.19
14882;BME280;7533;51.278;12.588;2023-05-20T08:05:17;100770.19;;;24.22;53.11
14882;BME280;7533;51.278;12.588;2023-05-20T08:10:21;100749.69;;;25.38;51.66
14882;BME280;7533;51.278;12.588;2023-05-20T08:15:25;100747.03;;;25.72;51.52
14882;BME280;7533;51.278;12.588;2023-05-20T08:20:30;100738.56;;;25.88;51.32
14882;BME280;7533;51.278;12.588;2023-05-20T08:25:33;100746.06;;;25.95;51.40
14882;BME280;7533;51.278;12.588;2023-05-20T08:30:38;100742.34;;;26.07;51.63
14882;BME280;7533;51.278;12.588;2023-05-20T08:35:42;100746.03;;;26.18;51.37
14882;BME280;7533;51.278;12.588;2023-05-20T08:40:45;100748.09;;;26.25;51.57
14882;BME280;7533;51.278;12.588;2023-05-20T08:45:49;100734.88;;;26.32;51.33
14882;BME280;7533;51.278;12.588;2023-05-20T08:50:56;100723.38;;;25.85;51.16
14882;BME280;7533;51.278;12.588;2023-05-20T08:56:00;100724.50;;;25.94;52.05
14882;BME280;7533;51.278;12.588;2023-05-20T09:01:06;100719.28;;;26.02;52.62
14882;BME280;7533;51.278;12.588;2023-05-20T09:06:15;100721.63;;;26.18;52.16
14882;BME280;7533;51.278;12.588;2023-05-20T09:11:18;100714.63;;;26.04;52.66
14882;BME280;7533;51.278;12.588;2023-05-20T09:16:24;100716.31;;;26.16;52.81
14882;BME280;7533;51.278;12.588;2023-05-20T09:21:28;100711.78;;;26.05;51.16
14882;BME280;7533;51.278;12.588;2023-05-20T09:26:31;100714.75;;;25.91;50.98
14882;BME280;7533;51.278;12.588;2023-05-20T09:31:35;100704.88;;;25.90;52.44
14882;BME280;7533;51.278;12.588;2023-05-20T09:36:42;100701.16;;;26.14;52.56
14882;BME280;7533;51.278;12.588;2023-05-20T09:41:49;100688.66;;;26.33;52.37
14882;BME280;7533;51.278;12.588;2023-05-20T09:46:57;100680.78;;;26.62;51.51
14882;BME280;7533;51.278;12.588;2023-05-20T09:52:02;100675.56;;;26.38;51.34
14882;BME280;7533;51.278;12.588;2023-05-20T09:57:06;100679.56;;;26.12;51.97
14882;BME280;7533;51.278;12.588;2023-05-20T10:02:10;100671.97;;;26.38;51.78
14882;BME280;7533;51.278;12.588;2023-05-20T10:07:36;100668.06;;;26.63;51.20
14882;BME280;7533;51.278;12.588;2023-05-20T10:12:50;100663.50;;;26.20;52.15
14882;BME280;7533;51.278;12.588;2023-05-20T10:18:05;100655.47;;;26.30;52.07
14882;BME280;7533;51.278;12.588;2023-05-20T10:23:19;100665.03;;;26.02;53.23
14882;BME280;7533;51.278;12.588;2023-05-20T10:28:30;100647.97;;;26.22;53.14
14882;BME280;7533;51.278;12.588;2023-05-20T10:33:41;100645.75;;;26.27;53.80
14882;BME280;7533;51.278;12.588;2023-05-20T10:38:50;100642.75;;;26.42;53.59
14882;BME280;7533;51.278;12.588;2023-05-20T10:44:01;100643.78;;;26.61;53.78
14882;BME280;7533;51.278;12.588;2023-05-20T10:49:16;100651.97;;;26.92;52.94
14882;BME280;7533;51.278;12.588;2023-05-20T10:54:23;100632.44;;;26.98;52.50
14882;BME280;7533;51.278;12.588;2023-05-20T10:59:26;100634.28;;;26.98;52.77
14882;BME280;7533;51.278;12.588;2023-05-20T11:04:31;100627.53;;;26.92;53.16
14882;BME280;7533;51.278;12.588;2023-05-20T11:09:34;100620.56;;;26.99;53.58
14882;BME280;7533;51.278;12.588;2023-05-20T11:14:37;100627.00;;;26.98;53.91
14882;BME280;7533;51.278;12.588;2023-05-20T11:19:42;100613.00;;;27.03;54.55
14882;BME280;7533;51.278;12.588;2023-05-20T11:24:45;100629.00;;;26.96;54.20
14882;BME280;7533;51.278;12.588;2023-05-20T11:29:48;100590.50;;;26.91;54.32
14882;BME280;7533;51.278;12.588;2023-05-20T11:34:53;100597.47;;;26.84;55.14
14882;BME280;7533;51.278;12.588;2023-05-20T11:40:04;100594.44;;;26.77;55.30
14882;BME280;7533;51.278;12.588;2023-05-20T11:45:12;100589.31;;;26.42;53.35
14882;BME280;7533;51.278;12.588;2023-05-20T11:50:17;100561.41;;;26.19;52.94
14882;BME280;7533;51.278;12.588;2023-05-20T11:55:20;100559.22;;;26.13;52.91
14882;BME280;7533;51.278;12.588;2023-05-20T12:00:23;100548.97;;;26.37;53.14
14882;BME280;7533;51.278;12.588;2023-05-20T12:05:31;100545.50;;;26.47;54.29
14882;BME280;7533;51.278;12.588;2023-05-20T12:10:34;100555.50;;;26.46;53.86
14882;BME280;7533;51.278;12.588;2023-05-20T12:15:38;100535.59;;;26.25;54.16
14882;BME280;7533;51.278;12.588;2023-05-20T12:20:43;100534.78;;;26.13;53.33
14882;BME280;7533;51.278;12.588;2023-05-20T12:25:46;100529.22;;;26.15;52.69
14882;BME280;7533;51.278;12.588;2023-05-20T12:30:50;100512.19;;;25.92;53.95
14882;BME280;7533;51.278;12.588;2023-05-20T12:35:55;100507.47;;;26.26;53.85
14882;BME280;7533;51.278;12.588;2023-05-20T12:40:57;100512.09;;;26.14;54.22
14882;BME280;7533;51.278;12.588;2023-05-20T12:46:01;100505.09;;;26.11;54.49
14882;BME280;7533;51.278;12.588;2023-05-20T12:51:05;100492.78;;;26.28;53.99
14882;BME280;7533;51.278;12.588;2023-05-20T12:56:08;100487.41;;;26.17;54.93
14882;BME280;7533;51.278;12.588;2023-05-20T13:01:11;100484.44;;;26.20;54.65
14882;BME280;7533;51.278;12.588;2023-05-20T13:06:15;100480.31;;;26.68;55.70
14882;BME280;7533;51.278;12.588;2023-05-20T13:11:18;100475.34;;;26.73;55.67
14882;BME280;7533;51.278;12.588;2023-05-20T13:16:22;100472.31;;;26.66;56.23
14882;BME280;7533;51.278;12.588;2023-05-20T13:21:26;100457.91;;;26.75;56.28
14882;BME280;7533;51.278;12.588;2023-05-20T13:26:29;100460.16;;;26.70;56.63
14882;BME280;7533;51.278;12.588;2023-05-20T13:31:32;100460.94;;;26.51;57.11
14882;BME280;7533;51.278;12.588;2023-05-20T13:36:37;100452.47;;;26.24;56.93
14882;BME280;7533;51.278;12.588;2023-05-20T13:41:39;100448.41;;;26.60;56.05
14882;BME280;7533;51.278;12.588;2023-05-20T13:46:43;100442.31;;;26.16;56.48
14882;BME280;7533;51.278;12.588;2023-05-20T13:51:47;100436.34;;;26.01;56.97
14882;BME280;7533;51.278;12.588;2023-05-20T14:02:36;100437.25;;;25.58;57.67
14882;BME280;7533;51.278;12.588;2023-05-20T14:07:39;100428.06;;;25.82;57.06
14882;BME280;7533;51.278;12.588;2023-05-20T14:12:42;100414.03;;;26.19;56.96
14882;BME280;7533;51.278;12.588;2023-05-20T14:17:50;100417.50;;;26.00;57.33
14882;BME280;7533;51.278;12.588;2023-05-20T14:22:53;100405.66;;;26.01;56.76
14882;BME280;7533;51.278;12.588;2023-05-20T14:34:44;100387.44;;;26.13;56.87
14882;BME280;7533;51.278;12.588;2023-05-20T14:39:46;100382.19;;;26.21;56.34
14882;BME280;7533;51.278;12.588;2023-05-20T14:44:49;100381.97;;;26.33;55.80
14882;BME280;7533;51.278;12.588;2023-05-20T14:49:54;100377.41;;;26.55;55.24
14882;BME280;7533;51.278;12.588;2023-05-20T14:54:57;100372.78;;;26.25;56.31
14882;BME280;7533;51.278;12.588;2023-05-20T15:00:00;100368.47;;;26.43;56.03
14882;BME280;7533;51.278;12.588;2023-05-20T15:05:05;100356.78;;;26.22;56.76
14882;BME280;7533;51.278;12.588;2023-05-20T15:10:08;100366.50;;;26.45;56.00
14882;BME280;7533;51.278;12.588;2023-05-20T15:15:11;100354.50;;;26.48;55.79
14882;BME280;7533;51.278;12.588;2023-05-20T15:20:15;100350.66;;;26.60;56.04
14882;BME280;7533;51.278;12.588;2023-05-20T15:25:18;100353.97;;;26.63;56.19
14882;BME280;7533;51.278;12.588;2023-05-20T15:30:21;100345.13;;;26.71;55.93
14882;BME280;7533;51.278;12.588;2023-05-20T15:35:26;100346.00;;;26.81;55.69
14882;BME280;7533;51.278;12.588;2023-05-20T15:40:29;100353.91;;;26.84;55.97
14882;BME280;7533;51.278;12.588;2023-05-20T15:45:32;100340.16;;;26.86;55.93
14882;BME280;7533;51.278;12.588;2023-05-20T15:50:37;100342.47;;;26.90;55.05
14882;BME280;7533;51.278;12.588;2023-05-20T15:55:40;100339.03;;;26.88;55.19
14882;BME280;7533;51.278;12.588;2023-05-20T16:00:44;100330.16;;;26.86;54.92
14882;BME280;7533;51.278;12.588;2023-05-20T16:05:48;100328.91;;;27.00;54.77
14882;BME280;7533;51.278;12.588;2023-05-20T16:10:51;100327.44;;;26.86;54.98
14882;BME280;7533;51.278;12.588;2023-05-20T16:15:55;100322.44;;;26.92;55.24
14882;BME280;7533;51.278;12.588;2023-05-20T16:20:59;100321.31;;;27.04;54.70
14882;BME280;7533;51.278;12.588;2023-05-20T16:26:02;100324.31;;;27.01;55.07
14882;BME280;7533;51.278;12.588;2023-05-20T16:31:05;100317.94;;;27.11;55.04
14882;BME280;7533;51.278;12.588;2023-05-20T16:36:10;100313.66;;;27.28;54.87
14882;BME280;7533;51.278;12.588;2023-05-20T16:41:13;100302.59;;;27.49;54.71
14882;BME280;7533;51.278;12.588;2023-05-20T16:46:17;100302.75;;;27.38;55.12
14882;BME280;7533;51.278;12.588;2023-05-20T16:51:21;100299.16;;;27.57;54.55
14882;BME280;7533;51.278;12.588;2023-05-20T16:56:24;100303.28;;;27.61;54.57
14882;BME280;7533;51.278;12.588;2023-05-20T17:01:27;100307.44;;;27.84;54.53
14882;BME280;7533;51.278;12.588;2023-05-20T17:06:32;100292.41;;;27.61;55.44
14882;BME280;7533;51.278;12.588;2023-05-20T17:11:35;100320.31;;;27.63;55.15
14882;BME280;7533;51.278;12.588;2023-05-20T17:16:38;100316.34;;;27.48;55.39
14882;BME280;7533;51.278;12.588;2023-05-20T17:21:43;100310.16;;;27.65;54.67
14882;BME280;7533;51.278;12.588;2023-05-20T17:26:46;100314.66;;;28.03;53.81
14882;BME280;7533;51.278;12.588;2023-05-20T17:31:49;100321.72;;;27.96;53.66
14882;BME280;7533;51.278;12.588;2023-05-20T17:36:53;100316.22;;;28.06;53.49
14882;BME280;7533;51.278;12.588;2023-05-20T17:41:57;100318.06;;;28.15;53.22
14882;BME280;7533;51.278;12.588;2023-05-20T17:47:00;100328.03;;;27.87;53.62
14882;BME280;7533;51.278;12.588;2023-05-20T17:52:05;100317.78;;;28.18;52.63
14882;BME280;7533;51.278;12.588;2023-05-20T17:57:09;100315.00;;;27.90;53.27
14882;BME280;7533;51.278;12.588;2023-05-20T18:02:12;100349.19;;;28.03;53.29
14882;BME280;7533;51.278;12.588;2023-05-20T18:07:33;100338.53;;;28.19;52.74
14882;BME280;7533;51.278;12.588;2023-05-20T18:12:37;100339.66;;;28.26;52.62
14882;BME280;7533;51.278;12.588;2023-05-20T18:17:40;100340.41;;;28.18;53.05
14882;BME280;7533;51.278;12.588;2023-05-20T18:22:45;100340.09;;;28.21;53.33
14882;BME280;7533;51.278;12.588;2023-05-20T18:27:51;100347.66;;;28.28;53.70
14882;BME280;7533;51.278;12.588;2023-05-20T18:33:18;100357.44;;;28.20;53.45
14882;BME280;7533;51.278;12.588;2023-05-20T18:38:26;100355.81;;;28.37;53.27
14882;BME280;7533;51.278;12.588;2023-05-20T18:43:29;100361.69;;;28.42;52.96
14882;BME280;7533;51.278;12.588;2023-05-20T18:48:32;100354.53;;;28.32;53.09
14882;BME280;7533;51.278;12.588;2023-05-20T18:53:40;100351.53;;;28.35;52.93
14882;BME280;7533;51.278;12.588;2023-05-20T18:58:43;100356.41;;;28.21;53.28
14882;BME280;7533;51.278;12.588;2023-05-20T19:03:48;100364.13;;;28.26;52.95
14882;BME280;7533;51.278;12.588;2023-05-20T19:08:53;100376.03;;;28.35;53.08
14882;BME280;7533;51.278;12.588;2023-05-20T19:13:56;100383.34;;;28.34;53.07
14882;BME280;7533;51.278;12.588;2023-05-20T19:18:59;100382.19;;;28.37;52.80
14882;BME280;7533;51.278;12.588;2023-05-20T19:24:04;100380.16;;;28.39;52.87
14882;BME280;7533;51.278;12.588;2023-05-20T19:29:07;100379.47;;;28.27;53.09
14882;BME280;7533;51.278;12.588;2023-05-20T19:34:10;100394.47;;;27.84;54.17
14882;BME280;7533;51.278;12.588;2023-05-20T19:39:14;100392.13;;;28.18;53.22
14882;BME280;7533;51.278;12.588;2023-05-20T19:44:17;100384.22;;;28.25;53.18
14882;BME280;7533;51.278;12.588;2023-05-20T19:49:20;100388.34;;;28.29;53.30
14882;BME280;7533;51.278;12.588;2023-05-20T19:54:25;100379.63;;;28.26;53.20
14882;BME280;7533;51.278;12.588;2023-05-20T19:59:28;100386.78;;;28.36;52.88
14882;BME280;7533;51.278;12.588;2023-05-20T20:04:31;100381.34;;;28.36;53.07
14882;BME280;7533;51.278;12.588;2023-05-20T20:09:36;100375.88;;;28.36;53.19
14882;BME280;7533;51.278;12.588;2023-05-20T20:14:38;100383.34;;;28.34;53.04
14882;BME280;7533;51.278;12.588;2023-05-20T20:19:41;100371.13;;;28.38;52.74
14882;BME280;7533;51.278;12.588;2023-05-20T20:24:47;100378.44;;;28.38;53.01
14882;BME280;7533;51.278;12.588;2023-05-20T20:29:51;100377.03;;;28.34;53.14
14882;BME280;7533;51.278;12.588;2023-05-20T20:34:54;100380.03;;;28.40;52.99
14882;BME280;7533;51.278;12.588;2023-05-20T20:39:59;100377.75;;;28.26;52.88
14882;BME280;7533;51.278;12.588;2023-05-20T20:45:14;100393.06;;;28.37;53.11
14882;BME280;7533;51.278;12.588;2023-05-20T20:50:17;100380.16;;;28.39;53.17
14882;BME280;7533;51.278;12.588;2023-05-20T20:55:21;100379.31;;;28.38;52.94
14882;BME280;7533;51.278;12.588;2023-05-20T21:00:24;100373.41;;;28.43;52.99
14882;BME280;7533;51.278;12.588;2023-05-20T21:05:28;100368.84;;;28.43;53.14
14882;BME280;7533;51.278;12.588;2023-05-20T21:10:33;100360.25;;;28.38;53.08
14882;BME280;7533;51.278;12.588;2023-05-20T21:15:37;100358.25;;;28.40;53.25
14882;BME280;7533;51.278;12.588;2023-05-20T21:20:40;100354.28;;;28.35;53.26
14882;BME280;7533;51.278;12.588;2023-05-20T21:25:45;100353.53;;;28.33;53.24
14882;BME280;7533;51.278;12.588;2023-05-20T21:30:48;100358.53;;;28.37;53.10
14882;BME280;7533;51.278;12.588;2023-05-20T21:35:51;100356.84;;;28.36;53.10
14882;BME280;7533;51.278;12.588;2023-05-20T21:40:55;100355.81;;;28.37;53.03
14882;BME280;7533;51.278;12.588;2023-05-20T21:45:59;100351.38;;;28.36;53.27
14882;BME280;7533;51.278;12.588;2023-05-20T21:51:02;100364.63;;;28.59;52.78
14882;BME280;7533;51.278;12.588;2023-05-20T21:56:06;100369.03;;;28.60;52.89
14882;BME280;7533;51.278;12.588;2023-05-20T22:01:09;100364.38;;;28.52;52.83
14882;BME280;7533;51.278;12.588;2023-05-20T22:06:12;100355.94;;;28.45;53.09
14882;BME280;7533;51.278;12.588;2023-05-20T22:11:17;100357.50;;;28.48;53.15
14882;BME280;7533;51.278;12.588;2023-05-20T22:16:22;100349.63;;;28.45;53.02
14882;BME280;7533;51.278;12.588;2023-05-20T22:21:25;100354.69;;;28.40;53.38
14882;BME280;7533;51.278;12.588;2023-05-20T22:26:30;100346.63;;;28.38;53.20
14882;BME280;7533;51.278;12.588;2023-05-20T22:31:35;100344.66;;;28.40;53.22
14882;BME280;7533;51.278;12.588;2023-05-20T22:36:38;100329.28;;;28.39;53.10
14882;BME280;7533;51.278;12.588;2023-05-20T22:41:43;100327.47;;;28.40;53.06
14882;BME280;7533;51.278;12.588;2023-05-20T22:46:46;100324.72;;;28.40;53.03
14882;BME280;7533;51.278;12.588;2023-05-20T22:51:49;100324.84;;;28.38;53.04
14882;BME280;7533;51.278;12.588;2023-05-20T22:56:54;100316.25;;;28.43;53.18
14882;BME280;7533;51.278;12.588;2023-05-20T23:01:59;100311.25;;;28.38;52.92
14882;BME280;7533;51.278;12.588;2023-05-20T23:07:03;100307.66;;;28.38;53.18
14882;BME280;7533;51.278;12.588;2023-05-20T23:12:08;100302.06;;;28.39;53.17
14882;BME280;7533;51.278;12.588;2023-05-20T23:17:11;100295.75;;;28.39;53.05
14882;BME280;7533;51.278;12.588;2023-05-20T23:22:14;100305.81;;;28.38;52.98
14882;BME280;7533;51.278;12.588;2023-05-20T23:27:18;100292.19;;;28.38;53.12
14882;BME280;7533;51.278;12.588;2023-05-20T23:32:20;100295.06;;;28.37;53.07
14882;BME280;7533;51.278;12.588;2023-05-20T23:37:23;100296.94;;;28.36;53.17
14882;BME280;7533;51.278;12.588;2023-05-20T23:42:28;100299.34;;;28.39;53.21
14882;BME280;7533;51.278;12.588;2023-05-20T23:47:32;100293.53;;;28.34;53.01
14882;BME280;7533;51.278;12.588;2023-05-20T23:52:36;100305.09;;;28.36;53.09
14882;BME280;7533;51.278;12.588;2023-05-20T23:57:42;100291.66;;;28.35;53.23
